Jacui, Brazil
Current Conditions -  °F | °C
As of 3:00 AM on Wednesday 26 Nov 2014 (Local Time) from SBRP Reporting Station
Light Rain Light Rain  
Wind Chill: 72°   Ceiling: 1300
Heat Index: 72°   Visibility: 4mi
Dew Point: 68°   Wind: 8mph
Humidity: 88%   Direction: 340°NNW
Pressure: 29.83"   Gusts: NA
Location:  21.02°S, 46.74°W
Report Text: SBRP 260500Z 34007KT 6000 -RA SCT005 OVC013 22/20 Q1010
Loading
Personal Weather Stations






























Interactive Weather Map New forecast layout! Learn more

10-Day Weather Forecast

Advertisements
Track Severe Weather on mobile